Time;durP1;ratioP1;P1;durP2;ratioP2;P2;SDS_P1;SDS_P2;PMS_P1;PMS_P2;Temp;Humidity;BMP_temperature;BMP_pressure;BME280_temperature;BME280_humidity;BME280_pressure;Samples;Min_cycle;Max_cycle;Signal;HPM_P1;HPM_P2
2021/12/13 00:02:54;;;;;;;24.85;16.25;;;;;;;0.43;100.00;101681.37;1674636;84;21066;-85
2021/12/13 00:05:35;;;;;;;29.27;15.60;;;;;;;0.44;100.00;101690.76;1623632;87;21184;-83
2021/12/13 00:08:07;;;;;;;31.07;15.75;;;;;;;0.46;100.00;101693.70;1666724;84;23851;-83
2021/12/13 00:10:45;;;;;;;30.25;16.27;;;;;;;0.44;100.00;101695.88;1712793;83;21096;-83
2021/12/13 00:13:19;;;;;;;27.58;16.35;;;;;;;0.42;100.00;101702.73;1687328;84;21582;-81
2021/12/13 00:15:59;;;;;;;34.33;16.40;;;;;;;0.40;100.00;101704.02;1694047;83;21135;-80
2021/12/13 00:18:33;;;;;;;29.32;16.35;;;;;;;0.38;100.00;101712.61;1699410;84;21093;-79
2021/12/13 00:21:09;;;;;;;27.40;15.78;;;;;;;0.35;100.00;101718.63;1694210;83;21025;-80
2021/12/13 00:23:55;;;;;;;32.00;16.12;;;;;;;0.36;100.00;101703.67;1704012;83;21525;-80
2021/12/13 00:26:36;;;;;;;35.85;16.60;;;;;;;0.36;100.00;101695.16;1684464;84;21543;-80
2021/12/13 00:29:19;;;;;;;27.80;15.98;;;;;;;0.35;100.00;101676.35;1695852;83;21036;-81
2021/12/13 00:32:03;;;;;;;25.30;15.38;;;;;;;0.37;100.00;101685.28;1697081;83;22407;-81
2021/12/13 00:34:51;;;;;;;29.52;14.60;;;;;;;0.39;100.00;101680.99;1672564;83;21869;-80
2021/12/13 00:37:23;;;;;;;35.50;17.12;;;;;;;0.50;100.00;101688.51;1685258;83;21121;-80
2021/12/13 00:40:02;;;;;;;30.62;14.58;;;;;;;0.46;100.00;101674.48;1687031;83;21406;-80
2021/12/13 00:42:46;;;;;;;35.08;15.43;;;;;;;0.41;100.00;101675.42;1694132;84;21324;-81
2021/12/13 00:45:17;;;;;;;29.48;16.87;;;;;;;0.34;100.00;101669.53;1703263;83;21564;-82
2021/12/13 00:47:45;;;;;;;29.05;16.30;;;;;;;0.26;100.00;101661.98;1704052;83;21097;-83
2021/12/13 00:50:26;;;;;;;30.00;16.20;;;;;;;0.20;100.00;101662.49;1704606;83;21176;-81
2021/12/13 00:52:54;;;;;;;33.58;15.98;;;;;;;0.16;100.00;101655.30;1666790;83;21014;-80
2021/12/13 00:55:26;;;;;;;26.50;15.75;;;;;;;0.11;100.00;101659.20;1707350;83;21082;-80
2021/12/13 00:58:14;;;;;;;33.33;15.45;;;;;;;0.07;100.00;101670.79;1683233;83;21907;-81
2021/12/13 01:00:50;;;;;;;32.83;16.30;;;;;;;0.09;100.00;101663.94;1706633;83;21117;-82
2021/12/13 01:03:25;;;;;;;26.93;15.38;;;;;;;0.08;100.00;101661.80;1696995;83;21065;-80
2021/12/13 01:06:49;;;;;;;27.90;16.20;;;;;;;0.05;100.00;101665.70;1736789;82;21034;-80
2021/12/13 01:10:12;;;;;;;29.90;14.70;;;;;;;0.05;100.00;101647.77;1741750;81;21046;-82
2021/12/13 01:12:39;;;;;;;31.97;16.70;;;;;;;0.03;100.00;101660.19;1681205;83;21934;-83
2021/12/13 01:15:25;;;;;;;28.23;14.90;;;;;;;0.01;100.00;101660.19;1717105;83;21070;-80
2021/12/13 01:18:04;;;;;;;31.73;16.20;;;;;;;-0.03;100.00;101660.67;1695769;84;21072;-81
2021/12/13 01:20:58;;;;;;;32.40;16.73;;;;;;;-0.03;100.00;101659.39;1698259;82;20994;-80
2021/12/13 01:23:27;;;;;;;28.42;16.60;;;;;;;-0.04;100.00;101660.25;1686931;84;21048;-86
2021/12/13 01:26:13;;;;;;;30.12;16.23;;;;;;;-0.02;100.00;101655.97;1693999;84;22191;-81
2021/12/13 01:28:57;;;;;;;;;;;;;;;;;;;;;
2021/12/13 01:31:18;;;;;;;36.00;16.10;;;;;;;0.05;100.00;101626.00;1649790;84;21543;-81
2021/12/13 01:33:50;;;;;;;31.77;15.70;;;;;;;0.01;100.00;101620.50;1684590;83;21056;-81
2021/12/13 01:36:27;;;;;;;28.40;16.30;;;;;;;-0.05;100.00;101622.73;1732336;82;21026;-82
2021/12/13 01:38:59;;;;;;;28.80;15.43;;;;;;;-0.08;100.00;101612.97;1743890;82;21337;-81
2021/12/13 01:41:31;;;;;;;33.67;15.98;;;;;;;-0.10;100.00;101605.30;1743048;81;21037;-80
2021/12/13 01:44:07;;;;;;;27.82;15.18;;;;;;;-0.12;100.00;101616.44;1730901;81;21112;-80
2021/12/13 01:46:40;;;;;;;34.83;15.35;;;;;;;-0.15;100.00;101618.61;1744238;80;21061;-82
2021/12/13 01:49:08;;;;;;;25.17;14.55;;;;;;;-0.17;100.00;101618.64;1745138;82;21093;-81
2021/12/13 01:51:36;;;;;;;30.65;16.37;;;;;;;-0.19;100.00;101618.22;1745145;81;21155;-80
2021/12/13 01:54:13;;;;;;;26.27;14.58;;;;;;;-0.22;100.00;101620.84;1737615;81;21093;-81
2021/12/13 01:56:57;;;;;;;30.60;16.40;;;;;;;-0.23;100.00;101626.38;1717891;83;21029;-84
2021/12/13 02:02:26;;;;;;;32.85;16.07;;;;;;;-0.27;100.00;101618.77;1657521;85;21106;-82
2021/12/13 02:05:05;;;;;;;31.55;17.20;;;;;;;-0.34;100.00;101615.46;1698409;84;21806;-81
2021/12/13 02:07:49;;;;;;;28.07;16.00;;;;;;;-0.40;100.00;101611.27;1698615;84;21247;-80
2021/12/13 02:10:37;;;;;;;24.55;15.08;;;;;;;-0.43;100.00;101615.12;1657431;84;21040;-80
2021/12/13 02:13:21;;;;;;;33.28;16.45;;;;;;;-0.46;100.00;101622.87;1690764;83;21043;-79
2021/12/13 02:18:46;;;;;;;32.30;15.93;;;;;;;-0.47;100.00;101622.45;1706884;82;21178;-81
2021/12/13 02:21:30;;;;;;;29.45;16.12;;;;;;;-0.45;100.00;101626.27;1688573;84;21092;-80
2021/12/13 02:26:48;;;;;;;28.98;16.65;;;;;;;-0.40;100.00;101635.58;1835984;77;22761;-81
2021/12/13 02:29:23;;;;;;;29.80;16.07;;;;;;;-0.39;100.00;101636.00;1788421;79;21041;-81
2021/12/13 02:31:50;;;;;;;30.65;15.70;;;;;;;-0.36;100.00;101636.38;1756553;79;21137;-80
2021/12/13 02:34:18;;;;;;;28.32;16.35;;;;;;;-0.35;100.00;101622.72;1756771;80;20970;-81
2021/12/13 02:36:50;;;;;;;28.27;17.35;;;;;;;-0.33;100.00;101632.06;1757049;80;20939;-80
2021/12/13 02:39:44;;;;;;;31.42;18.98;;;;;;;-0.29;100.00;101643.11;1757581;80;21574;-80
2021/12/13 02:42:15;;;;;;;32.78;16.50;;;;;;;-0.23;100.00;101644.75;1757827;80;20958;-85
2021/12/13 02:44:50;;;;;;;28.02;16.52;;;;;;;-0.22;100.00;101628.08;1756521;80;21221;-81
2021/12/13 02:47:37;;;;;;;27.10;16.90;;;;;;;-0.21;100.00;101625.10;1751902;80;20990;-79
2021/12/13 02:50:12;;;;;;;30.80;17.27;;;;;;;-0.20;100.00;101627.63;1754416;80;21272;-81
2021/12/13 02:52:41;;;;;;;28.47;16.10;;;;;;;-0.19;100.00;101637.42;1756001;80;21968;-84
2021/12/13 02:55:13;;;;;;;26.48;17.60;;;;;;;-0.26;100.00;101626.44;1756804;80;21018;-80
2021/12/13 02:57:46;;;;;;;29.52;17.27;;;;;;;-0.31;100.00;101616.68;1753530;80;21835;-83
2021/12/13 03:00:30;;;;;;;30.60;17.85;;;;;;;-0.38;100.00;101618.50;1754059;80;21022;-81
2021/12/13 03:03:01;;;;;;;31.27;16.32;;;;;;;-0.45;100.00;101628.82;1754713;80;21002;-80
2021/12/13 03:05:40;;;;;;;25.75;15.90;;;;;;;-0.52;100.00;101609.71;1737240;80;22306;-81
2021/12/13 03:08:15;;;;;;;30.48;17.42;;;;;;;-0.55;100.00;101601.23;1737116;81;21009;-82
2021/12/13 03:10:48;;;;;;;31.55;17.17;;;;;;;-0.57;100.00;101611.91;1754487;80;21143;-80
2021/12/13 03:13:17;;;;;;;29.32;17.20;;;;;;;-0.58;100.00;101611.49;1757374;80;21007;-81
2021/12/13 03:15:50;;;;;;;27.40;17.10;;;;;;;-0.59;100.00;101609.37;1756059;80;21046;-83
2021/12/13 03:18:22;;;;;;;33.78;18.62;;;;;;;-0.58;100.00;101623.01;1753956;80;21049;-82
2021/12/13 03:21:10;;;;;;;27.67;17.37;;;;;;;-0.56;100.00;101620.00;1755367;80;21590;-83
2021/12/13 03:23:57;;;;;;;24.37;16.50;;;;;;;-0.55;100.00;101609.73;1717356;81;21106;-83
2021/12/13 03:27:01;;;;;;;34.50;18.55;;;;;;;-0.53;100.00;101604.62;1752299;81;21037;-81
2021/12/13 03:30:08;;;;;;;28.65;16.95;;;;;;;-0.49;100.00;101605.84;1730001;82;21066;-82
2021/12/13 03:32:47;;;;;;;30.75;17.42;;;;;;;-0.50;100.00;101605.84;1702519;82;21625;-82
2021/12/13 03:35:25;;;;;;;30.25;15.98;;;;;;;-0.53;100.00;101604.62;1712224;83;20964;-82
2021/12/13 03:38:10;;;;;;;29.45;16.07;;;;;;;-0.55;100.00;101613.58;1757961;81;21169;-81
2021/12/13 03:40:38;;;;;;;27.67;16.75;;;;;;;-0.57;100.00;101619.17;1788166;80;21036;-85
2021/12/13 03:43:10;;;;;;;31.85;16.95;;;;;;;-0.60;100.00;101615.81;1791650;80;21041;-82
2021/12/13 03:45:45;;;;;;;31.50;17.37;;;;;;;-0.62;100.00;101625.20;1787503;80;21549;-82
2021/12/13 03:48:17;;;;;;;29.60;17.25;;;;;;;-0.64;100.00;101625.20;1730440;81;21121;-81
2021/12/13 03:50:49;;;;;;;30.52;18.25;;;;;;;-0.68;100.00;101619.27;1729438;83;21932;-83
2021/12/13 03:53:21;;;;;;;31.97;18.12;;;;;;;-0.67;100.00;101606.07;1726056;83;21112;-83
2021/12/13 03:55:55;;;;;;;28.02;16.77;;;;;;;-0.69;100.00;101602.27;1756011;81;21523;-81
2021/12/13 03:58:24;;;;;;;27.62;17.37;;;;;;;-0.69;100.00;101606.09;1758800;81;21002;-81
2021/12/13 04:01:02;;;;;;;28.90;18.23;;;;;;;-0.70;100.00;101609.52;1729448;83;21534;-81
2021/12/13 04:03:32;;;;;;;28.10;18.00;;;;;;;-0.72;100.00;101602.28;1727062;83;21591;-82
2021/12/13 04:06:00;;;;;;;28.12;18.05;;;;;;;-0.72;100.00;101593.34;1730776;81;21045;-82
2021/12/13 04:08:57;;;;;;;31.60;18.20;;;;;;;-0.75;100.00;101588.24;1729370;83;21042;-82
2021/12/13 04:11:28;;;;;;;34.80;19.42;;;;;;;-0.73;100.00;101595.92;1726223;83;21060;-85
2021/12/13 04:14:07;;;;;;;31.45;18.40;;;;;;;-0.73;100.00;101589.53;1759331;80;21160;-81
2021/12/13 04:16:49;;;;;;;31.57;18.25;;;;;;;-0.75;100.00;101589.52;1723696;83;21271;-85
2021/12/13 04:19:22;;;;;;;37.53;18.80;;;;;;;-0.78;100.00;101596.39;1703298;83;21052;-81
2021/12/13 04:21:58;;;;;;;31.73;18.17;;;;;;;-0.80;100.00;101592.58;1766258;79;21500;-81
2021/12/13 04:24:40;;;;;;;30.88;17.95;;;;;;;-0.78;100.00;101598.53;1742020;80;21002;-83
2021/12/13 04:27:18;;;;;;;32.10;18.92;;;;;;;-0.76;100.00;101595.50;1715549;82;21046;-81
2021/12/13 04:29:48;;;;;;;31.45;17.77;;;;;;;-0.73;100.00;101599.31;1695383;82;21092;-81
2021/12/13 04:32:29;;;;;;;30.77;19.85;;;;;;;-0.69;100.00;101600.12;1736323;81;21472;-81
2021/12/13 04:35:03;;;;;;;33.15;19.42;;;;;;;-0.63;100.00;101602.59;1756550;80;21105;-81
2021/12/13 04:37:39;;;;;;;29.70;18.48;;;;;;;-0.62;100.00;101611.13;1755681;80;21041;-81
2021/12/13 04:40:15;;;;;;;34.55;19.73;;;;;;;-0.60;100.00;101606.85;1756886;80;21048;-82
2021/12/13 04:42:43;;;;;;;38.28;20.32;;;;;;;-0.41;100.00;101595.94;1756154;80;21145;-84
2021/12/13 04:45:19;;;;;;;41.58;20.25;;;;;;;-0.23;100.00;101585.87;1756400;80;20994;-79
2021/12/13 04:47:57;;;;;;;37.45;19.05;;;;;;;-0.10;100.00;101585.26;1755924;80;21133;-81
2021/12/13 04:50:36;;;;;;;40.30;20.17;;;;;;;-0.18;100.00;101590.06;1754733;80;21011;-82
2021/12/13 04:53:06;;;;;;;37.48;19.05;;;;;;;-0.29;100.00;101579.12;1745242;80;21045;-81
2021/12/13 04:55:37;;;;;;;45.20;21.52;;;;;;;-0.37;100.00;101583.50;1756684;80;21889;-82
2021/12/13 04:58:09;;;;;;;39.65;21.75;;;;;;;-0.41;100.00;101578.86;1756840;80;21097;-83
2021/12/13 05:00:39;;;;;;;;;;;;;;;-0.24;100.00;101583.72;1738979;80;21062;-88
2021/12/13 05:03:10;;;;;;;33.23;19.55;;;;;;;-0.13;100.00;101589.13;1719386;80;20170;-81
2021/12/13 05:05:39;;;;;;;37.60;19.75;;;;;;;0.10;100.00;101589.63;1753374;80;21033;-81
2021/12/13 05:08:13;;;;;;;34.15;18.50;;;;;;;0.11;100.00;101596.89;1736434;81;21781;-86
2021/12/13 05:10:43;;;;;;;33.58;19.85;;;;;;;0.01;100.00;101587.66;1750283;80;21053;-80
2021/12/13 05:13:15;;;;;;;38.35;21.02;;;;;;;-0.09;100.00;101583.11;1737066;80;21058;-81
2021/12/13 05:16:00;;;;;;;36.58;19.67;;;;;;;-0.14;100.00;101582.31;1757719;80;21058;-81
2021/12/13 05:18:33;;;;;;;40.88;19.10;;;;;;;-0.21;100.00;101588.81;1755783;80;21061;-81
2021/12/13 05:21:08;;;;;;;35.58;20.12;;;;;;;-0.29;100.00;101585.52;1748187;80;21109;-81
2021/12/13 05:23:55;;;;;;;40.05;20.10;;;;;;;-0.32;100.00;101603.05;1721568;82;21003;-82
2021/12/13 05:26:45;;;;;;;38.80;21.25;;;;;;;-0.32;100.00;101604.75;1727372;81;21080;-84
2021/12/13 05:29:36;;;;;;;31.07;18.85;;;;;;;-0.29;100.00;101593.64;1696308;84;21591;-81
2021/12/13 05:32:11;;;;;;;34.70;19.07;;;;;;;-0.28;100.00;101596.62;1705264;83;21016;-81
2021/12/13 05:34:43;;;;;;;32.23;19.25;;;;;;;-0.25;100.00;101596.14;1669514;84;21112;-82
2021/12/13 05:37:11;;;;;;;38.40;20.80;;;;;;;-0.27;100.00;101600.84;1706491;82;21026;-84
2021/12/13 05:39:44;;;;;;;29.75;20.12;;;;;;;-0.29;100.00;101607.72;1729618;82;21025;-83
2021/12/13 05:42:12;;;;;;;33.10;20.55;;;;;;;-0.34;100.00;101602.22;1709195;82;21085;-84
2021/12/13 05:44:43;;;;;;;34.27;18.90;;;;;;;-0.38;100.00;101599.72;1729377;82;21069;-82
2021/12/13 05:47:26;;;;;;;;;;;;;;;-0.43;100.00;101595.11;1726375;81;21066;-83
2021/12/13 05:49:53;;;;;;;35.43;19.67;;;;;;;-0.50;100.00;101590.48;1725535;81;20141;-82
2021/12/13 05:52:26;;;;;;;35.45;20.97;;;;;;;-0.57;100.00;101582.48;1757820;81;21135;-83
2021/12/13 05:54:58;;;;;;;34.48;19.85;;;;;;;-0.60;100.00;101571.03;1737742;81;21483;-82
2021/12/13 05:57:30;;;;;;;34.95;19.48;;;;;;;-0.62;100.00;101577.88;1755929;80;21522;-82
2021/12/13 06:00:26;;;;;;;33.35;19.90;;;;;;;-0.65;100.00;101589.00;1743367;81;21142;-82
2021/12/13 06:03:18;;;;;;;33.13;20.25;;;;;;;-0.69;100.00;101592.03;1761363;80;21159;-81
2021/12/13 06:05:52;;;;;;;35.90;20.95;;;;;;;-0.60;100.00;101587.22;1740116;81;21014;-81
2021/12/13 06:08:33;;;;;;;36.42;20.62;;;;;;;-0.60;100.00;101593.61;1760244;80;21059;-86
2021/12/13 06:11:05;;;;;;;35.08;20.68;;;;;;;-0.60;100.00;101610.69;1707622;82;21120;-81
2021/12/13 06:13:46;;;;;;;36.70;21.90;;;;;;;-0.64;100.00;101603.04;1707348;82;21029;-86
2021/12/13 06:16:28;;;;;;;32.50;21.17;;;;;;;-0.65;100.00;101603.91;1729578;82;21019;-82
2021/12/13 06:19:00;;;;;;;;;;;;;;;-0.66;100.00;101600.92;1731860;82;21066;-82
2021/12/13 06:22:01;;;;;;;34.55;19.20;;;;;;;-0.66;100.00;101606.48;1729648;82;20138;-83
2021/12/13 06:28:06;;;;;;;36.65;20.02;;;;;;;-0.72;100.00;101600.17;1708001;82;21066;-80
2021/12/13 06:30:38;;;;;;;38.75;22.65;;;;;;;-0.71;100.00;101612.94;1726321;81;21034;-82
2021/12/13 06:33:10;;;;;;;36.10;23.05;;;;;;;-0.68;100.00;101618.45;1698211;80;21061;-81
2021/12/13 06:35:54;;;;;;;37.05;22.00;;;;;;;-0.66;100.00;101620.11;1731319;81;21016;-83
2021/12/13 06:38:34;;;;;;;40.20;21.27;;;;;;;-0.62;100.00;101608.12;1701437;82;21076;-81
2021/12/13 06:41:22;;;;;;;37.20;19.73;;;;;;;-0.58;100.00;101599.56;1736111;80;21161;-82
2021/12/13 06:43:57;;;;;;;48.45;22.82;;;;;;;-0.56;100.00;101600.81;1701225;82;21022;-81
2021/12/13 06:46:29;;;;;;;44.73;22.90;;;;;;;-0.39;100.00;101598.88;1758613;79;21049;-82
2021/12/13 06:49:14;;;;;;;44.03;23.15;;;;;;;-0.27;100.00;101605.55;1720650;80;21023;-82
2021/12/13 06:51:49;;;;;;;44.65;22.93;;;;;;;-0.32;100.00;101603.05;1726177;80;21169;-82
2021/12/13 06:54:21;;;;;;;42.65;21.77;;;;;;;-0.38;100.00;101598.02;1755376;80;21149;-85
2021/12/13 06:56:57;;;;;;;34.23;21.65;;;;;;;-0.41;100.00;101598.05;1734280;80;21069;-81
2021/12/13 06:59:25;;;;;;;38.20;21.77;;;;;;;-0.42;100.00;101606.59;1724040;81;21416;-83
2021/12/13 07:02:13;;;;;;;41.10;21.87;;;;;;;-0.40;100.00;101624.06;1778440;79;21042;-83
2021/12/13 07:05:03;;;;;;;38.55;20.72;;;;;;;-0.36;100.00;101635.10;1743116;79;21062;-84
2021/12/13 07:07:38;;;;;;;42.80;22.37;;;;;;;-0.35;100.00;101631.23;1718000;82;21859;-81
2021/12/13 07:10:16;;;;;;;34.38;21.80;;;;;;;-0.30;100.00;101630.34;1745272;80;21087;-81
2021/12/13 07:12:50;;;;;;;39.10;21.50;;;;;;;-0.28;100.00;101633.73;1703620;80;21033;-84
2021/12/13 07:15:38;;;;;;;39.30;19.67;;;;;;;-0.28;100.00;101634.57;1720569;82;21042;-82
2021/12/13 07:18:13;;;;;;;42.85;22.95;;;;;;;-0.27;100.00;101635.40;1724411;80;21720;-82
2021/12/13 07:20:48;;;;;;;37.67;22.45;;;;;;;-0.25;100.00;101650.31;1720697;82;21142;-82
2021/12/13 07:23:17;;;;;;;35.55;20.97;;;;;;;-0.25;100.00;101654.16;1752695;80;21017;-83
2021/12/13 07:25:56;;;;;;;;;;;;;;;;;;;;;
2021/12/13 07:28:33;;;;;;;34.65;21.55;;;;;;;-0.27;100.00;101654.19;1718339;83;21002;-82
2021/12/13 07:31:06;;;;;;;38.40;22.82;;;;;;;-0.27;100.00;101636.69;1691083;83;21682;-82
2021/12/13 07:33:42;;;;;;;33.53;22.48;;;;;;;-0.29;100.00;101642.28;1732060;81;21187;-81
2021/12/13 07:36:28;;;;;;;38.90;22.35;;;;;;;-0.30;100.00;101640.13;1713014;82;21488;-85
2021/12/13 07:39:02;;;;;;;38.63;22.50;;;;;;;-0.25;100.00;101645.20;1706690;81;21036;-81
2021/12/13 07:41:49;;;;;;;37.85;23.10;;;;;;;-0.22;100.00;101646.00;1688946;83;21081;-81
2021/12/13 07:44:47;;;;;;;35.23;22.90;;;;;;;-0.17;100.00;101634.42;1692104;83;21025;-80
2021/12/13 07:47:22;;;;;;;38.65;22.00;;;;;;;-0.19;100.00;101625.91;1719451;82;21621;-82
2021/12/13 07:49:54;;;;;;;40.33;23.52;;;;;;;-0.24;100.00;101627.25;1688417;82;21092;-85
2021/12/13 07:52:35;;;;;;;35.52;22.87;;;;;;;-0.22;100.00;101638.77;1702942;82;21055;-82
2021/12/13 07:55:19;;;;;;;40.03;22.93;;;;;;;-0.19;100.00;101640.84;1690235;83;21057;-83
2021/12/13 07:57:48;;;;;;;40.38;23.42;;;;;;;-0.16;100.00;101642.06;1728244;81;21046;-83
2021/12/13 08:00:27;;;;;;;35.78;22.73;;;;;;;-0.12;100.00;101645.88;1700953;83;21109;-82
2021/12/13 08:03:07;;;;;;;39.20;23.15;;;;;;;-0.07;100.00;101641.53;1725756;83;21044;-82
2021/12/13 08:05:39;;;;;;;39.55;22.55;;;;;;;-0.03;100.00;101631.67;1690061;82;21088;-86
2021/12/13 08:08:23;;;;;;;40.03;23.02;;;;;;;0.04;100.00;101626.87;1725543;82;21013;-82
2021/12/13 08:10:54;;;;;;;40.45;23.90;;;;;;;0.11;100.00;101610.98;1689740;83;21559;-82
2021/12/13 08:13:26;;;;;;;34.92;22.20;;;;;;;0.11;100.00;101610.98;1723986;81;21828;-80
2021/12/13 08:16:08;;;;;;;44.18;23.65;;;;;;;0.16;100.00;101611.74;1727664;83;21021;-81
2021/12/13 08:18:42;;;;;;;43.52;24.12;;;;;;;0.19;100.00;101618.53;1727312;83;21025;-82
2021/12/13 08:21:17;;;;;;;35.15;23.57;;;;;;;0.18;100.00;101607.45;1720143;83;21014;-83
2021/12/13 08:24:00;;;;;;;37.17;21.05;;;;;;;0.21;100.00;101599.70;1721868;81;21044;-81
2021/12/13 08:26:35;;;;;;;33.58;21.40;;;;;;;0.21;100.00;101605.27;1727045;81;21790;-81
2021/12/13 08:29:10;;;;;;;36.83;23.00;;;;;;;0.21;100.00;101621.92;1763343;79;21033;-82
2021/12/13 08:31:39;;;;;;;37.90;22.85;;;;;;;0.23;100.00;101627.42;1759264;79;21102;-82
2021/12/13 08:34:15;;;;;;;41.53;23.12;;;;;;;0.23;100.00;101612.05;1739757;80;20959;-81
2021/12/13 08:36:47;;;;;;;38.05;22.80;;;;;;;0.22;100.00;101614.20;1763215;80;21382;-84
2021/12/13 08:39:28;;;;;;;40.00;23.07;;;;;;;0.23;100.00;101609.48;1778379;79;21768;-86
2021/12/13 08:42:10;;;;;;;38.73;22.87;;;;;;;0.25;100.00;101605.20;1776828;79;24016;-83
2021/12/13 08:44:47;;;;;;;38.38;22.82;;;;;;;0.44;100.00;101596.77;1781700;78;21053;-83
2021/12/13 08:47:21;;;;;;;37.58;22.50;;;;;;;0.48;100.00;101600.56;1709032;82;21049;-82
2021/12/13 08:49:54;;;;;;;39.00;23.10;;;;;;;0.44;100.00;101599.78;1748203;79;21527;-81
2021/12/13 08:52:33;;;;;;;35.88;21.20;;;;;;;0.39;100.00;101613.08;1728169;81;21074;-82
2021/12/13 08:55:18;;;;;;;34.30;20.77;;;;;;;0.37;100.00;101617.38;1782474;79;21049;-82
2021/12/13 08:58:11;;;;;;;35.75;22.35;;;;;;;0.39;100.00;101622.91;1742948;80;20999;-83
2021/12/13 09:00:48;;;;;;;37.45;21.23;;;;;;;0.42;100.00;101608.75;1748013;80;21069;-83
2021/12/13 09:03:50;;;;;;;37.53;21.90;;;;;;;0.39;100.00;101593.86;1748323;80;21030;-82
2021/12/13 09:06:24;;;;;;;37.67;21.12;;;;;;;0.33;100.00;101583.72;1780376;79;25319;-82
2021/12/13 09:09:06;;;;;;;37.13;23.35;;;;;;;0.29;100.00;101573.52;1748023;80;21504;-82
2021/12/13 09:11:55;;;;;;;39.35;20.68;;;;;;;0.28;100.00;101591.03;1744701;80;21003;-82
2021/12/13 09:14:27;;;;;;;34.67;21.57;;;;;;;0.27;100.00;101603.46;1747186;80;21030;-83
2021/12/13 09:17:21;;;;;;;34.20;21.23;;;;;;;0.24;100.00;101607.80;1751941;79;20983;-82
2021/12/13 09:19:59;;;;;;;46.33;24.57;;;;;;;0.22;100.00;101592.42;1752244;80;21220;-81
2021/12/13 09:22:34;;;;;;;42.15;21.95;;;;;;;0.25;100.00;101568.47;1752040;79;21026;-82
2021/12/13 09:25:38;;;;;;;41.80;20.80;;;;;;;0.25;100.00;101552.67;1748834;80;21070;-85
2021/12/13 09:28:23;;;;;;;37.17;20.32;;;;;;;0.27;100.00;101570.16;1766841;78;21547;-82
2021/12/13 09:31:01;;;;;;;37.63;18.95;;;;;;;0.26;100.00;101574.00;1736929;80;20994;-81
2021/12/13 09:33:40;;;;;;;37.70;21.48;;;;;;;0.26;100.00;101568.46;1756894;80;21828;-82
2021/12/13 09:36:14;;;;;;;43.80;22.02;;;;;;;0.28;100.00;101573.10;1753467;80;20990;-82
2021/12/13 09:39:18;;;;;;;32.60;20.32;;;;;;;0.29;100.00;101570.95;1756152;80;21038;-83
2021/12/13 09:41:59;;;;;;;35.03;19.27;;;;;;;0.31;100.00;101556.41;1753727;80;21602;-81
2021/12/13 09:44:37;;;;;;;34.90;20.75;;;;;;;0.29;100.00;101571.41;1756492;80;21081;-82
2021/12/13 09:47:12;;;;;;;40.58;20.62;;;;;;;0.24;100.00;101570.20;1754105;80;21146;-86
2021/12/13 09:49:47;;;;;;;37.03;19.37;;;;;;;0.24;100.00;101570.64;1756377;80;20996;-81
2021/12/13 09:52:31;;;;;;;32.85;21.02;;;;;;;0.27;100.00;101561.19;1752663;80;21120;-83
2021/12/13 09:55:21;;;;;;;37.55;20.68;;;;;;;0.26;100.00;101551.81;1756541;80;21023;-82
2021/12/13 09:58:01;;;;;;;38.38;20.23;;;;;;;0.28;100.00;101550.49;1737130;81;21061;-83
2021/12/13 10:01:08;;;;;;;37.03;19.57;;;;;;;0.36;100.00;101535.83;1736824;81;22387;-81
2021/12/13 10:04:10;;;;;;;31.07;18.85;;;;;;;0.40;100.00;101536.17;1756350;80;21046;-81
2021/12/13 10:06:42;;;;;;;32.75;19.15;;;;;;;0.41;100.00;101534.02;1753901;80;21113;-81
2021/12/13 10:09:21;;;;;;;33.63;20.57;;;;;;;0.48;100.00;101533.94;1758923;80;21033;-81
2021/12/13 10:11:57;;;;;;;31.68;19.27;;;;;;;0.52;100.00;101531.70;1753902;80;21100;-82
2021/12/13 10:14:31;;;;;;;31.27;19.35;;;;;;;0.52;100.00;101533.82;1756700;80;20999;-82
2021/12/13 10:17:00;;;;;;;33.65;19.90;;;;;;;0.58;100.00;101532.87;1753480;80;21035;-82
2021/12/13 10:19:36;;;;;;;30.25;19.37;;;;;;;0.60;100.00;101534.52;1756795;80;20951;-81
2021/12/13 10:22:06;;;;;;;33.33;19.67;;;;;;;0.63;100.00;101526.79;1756634;80;21662;-87
2021/12/13 10:24:38;;;;;;;37.42;20.62;;;;;;;0.66;100.00;101525.05;1756706;80;21021;-81
2021/12/13 10:27:09;;;;;;;31.55;19.48;;;;;;;0.66;100.00;101531.01;1759155;80;21479;-82
2021/12/13 10:29:38;;;;;;;29.50;18.75;;;;;;;0.67;100.00;101533.16;1748283;80;21070;-82
2021/12/13 10:32:10;;;;;;;36.83;19.90;;;;;;;0.67;100.00;101528.86;1799639;79;21058;-82
2021/12/13 10:34:43;;;;;;;31.10;18.42;;;;;;;0.73;100.00;101533.86;1747951;80;21058;-81
2021/12/13 10:37:16;;;;;;;34.43;18.82;;;;;;;0.74;100.00;101529.14;1748345;80;21022;-81
2021/12/13 10:39:48;;;;;;;34.92;19.65;;;;;;;0.78;100.00;101532.07;1782873;79;21145;-81
2021/12/13 10:42:33;;;;;;;32.00;18.30;;;;;;;0.78;100.00;101526.94;1751782;80;21069;-84
2021/12/13 10:45:04;;;;;;;34.13;19.82;;;;;;;0.77;100.00;101525.25;1751903;80;21567;-81
2021/12/13 10:47:37;;;;;;;32.40;18.50;;;;;;;0.80;100.00;101525.62;1775780;79;21045;-81
2021/12/13 10:50:09;;;;;;;30.00;18.55;;;;;;;0.83;100.00;101531.12;1748306;80;21042;-86
2021/12/13 10:52:41;;;;;;;31.93;19.07;;;;;;;0.80;100.00;101526.07;1771405;78;21790;-82
2021/12/13 10:59:07;;;;;;;34.80;19.92;;;;;;;0.78;100.00;101523.52;1762683;79;21096;-81
2021/12/13 11:01:46;;;;;;;30.43;18.48;;;;;;;0.87;100.00;101518.66;1751809;80;21606;-82
2021/12/13 11:04:18;;;;;;;34.13;20.25;;;;;;;0.86;100.00;101516.52;1748280;80;21026;-81
2021/12/13 11:06:46;;;;;;;38.08;20.30;;;;;;;1.20;100.00;101504.73;1751461;80;21161;-82
2021/12/13 11:09:19;;;;;;;36.42;20.77;;;;;;;1.43;100.00;101502.09;1748179;79;21058;-82
2021/12/13 11:11:51;;;;;;;69.90;21.93;;;;;;;1.50;100.00;101505.75;1745554;80;21018;-85
2021/12/13 11:14:21;;;;;;;120.10;26.05;;;;;;;1.75;100.00;101503.06;1739514;80;21121;-82
2021/12/13 11:16:59;;;;;;;56.98;21.15;;;;;;;1.83;100.00;101503.72;1749727;80;21183;-82
2021/12/13 11:19:31;;;;;;;52.98;22.20;;;;;;;1.87;100.00;101504.03;1755274;79;21858;-85
2021/12/13 11:22:07;;;;;;;39.15;21.33;;;;;;;1.86;100.00;101494.21;1735565;80;21035;-82
2021/12/13 11:24:38;;;;;;;52.95;20.12;;;;;;;1.83;100.00;101492.16;1718781;82;21145;-85
2021/12/13 11:27:11;;;;;;;39.53;20.15;;;;;;;1.74;100.00;101489.36;1718588;82;21551;-82
2021/12/13 11:29:41;;;;;;;40.73;20.23;;;;;;;1.69;100.00;101489.47;1747878;80;21054;-83
2021/12/13 11:32:40;;;;;;;37.93;19.70;;;;;;;1.75;100.00;101487.65;1780611;79;21640;-81
2021/12/13 11:35:47;;;;;;;29.65;18.52;;;;;;;1.78;100.00;101492.69;1748101;80;21007;-83
2021/12/13 11:39:08;;;;;;;38.85;18.92;;;;;;;1.85;100.00;101485.23;1780453;79;21555;-82
2021/12/13 11:42:38;;;;;;;34.63;17.85;;;;;;;1.92;100.00;101489.80;1738072;80;21052;-84
2021/12/13 11:45:15;;;;;;;34.92;19.60;;;;;;;2.00;100.00;101482.73;1736057;80;21485;-83
2021/12/13 11:48:15;;;;;;;29.50;17.90;;;;;;;2.12;100.00;101488.87;1721750;81;21090;-83
2021/12/13 11:51:13;;;;;;;31.93;19.98;;;;;;;2.11;100.00;101487.60;1743993;80;21460;-82
2021/12/13 11:54:13;;;;;;;32.20;18.70;;;;;;;2.05;100.00;101479.17;1749995;79;21029;-82
2021/12/13 11:57:14;;;;;;;31.30;17.17;;;;;;;1.98;100.00;101487.06;1753797;79;21033;-83
2021/12/13 12:00:35;;;;;;;33.48;18.73;;;;;;;1.94;100.00;101490.16;1719378;82;21058;-83
2021/12/13 12:03:51;;;;;;;36.55;19.45;;;;;;;1.93;100.00;101483.78;1725359;80;20979;-84
2021/12/13 12:07:19;;;;;;;33.73;17.82;;;;;;;1.97;100.00;101486.66;1747078;80;21070;-83
2021/12/13 12:10:26;;;;;;;34.48;17.82;;;;;;;1.89;100.00;101484.30;1705243;82;21601;-82
2021/12/13 12:13:15;;;;;;;32.38;18.73;;;;;;;1.68;100.00;101478.79;1749835;80;21089;-81
2021/12/13 12:15:47;;;;;;;30.27;19.00;;;;;;;1.79;100.00;101482.41;1763944;79;21018;-82
2021/12/13 12:18:20;;;;;;;28.47;17.77;;;;;;;1.71;100.00;101485.59;1743165;80;21657;-86
2021/12/13 12:21:30;;;;;;;34.53;19.55;;;;;;;1.65;100.00;101487.00;1782147;79;21463;-85